sensor_id;sensor_type;location;lat;lon;timestamp;pressure;altitude;pressure_sealevel;temperature;humidity
17373;BME280;8803;48.116;11.590;2023-12-20T00:01:32;95606.19;;;9.14;71.15
17373;BME280;8803;48.116;11.590;2023-12-20T00:03:37;95603.53;;;9.14;71.29
17373;BME280;8803;48.116;11.590;2023-12-20T00:05:41;95599.55;;;9.14;71.68
17373;BME280;8803;48.116;11.590;2023-12-20T00:07:46;95593.39;;;9.13;72.36
17373;BME280;8803;48.116;11.590;2023-12-20T00:09:51;95597.51;;;9.12;72.54
17373;BME280;8803;48.116;11.590;2023-12-20T00:11:55;95595.81;;;9.11;72.50
17373;BME280;8803;48.116;11.590;2023-12-20T00:14:00;95598.98;;;9.10;72.71
17373;BME280;8803;48.116;11.590;2023-12-20T00:16:06;95588.69;;;9.11;74.02
17373;BME280;8803;48.116;11.590;2023-12-20T00:18:11;95584.84;;;9.10;74.02
17373;BME280;8803;48.116;11.590;2023-12-20T00:22:29;95578.16;;;9.15;74.09
17373;BME280;8803;48.116;11.590;2023-12-20T00:26:50;95575.17;;;9.14;74.53
17373;BME280;8803;48.116;11.590;2023-12-20T00:28:54;95579.53;;;9.10;74.05
17373;BME280;8803;48.116;11.590;2023-12-20T00:33:12;95566.34;;;9.14;75.15
17373;BME280;8803;48.116;11.590;2023-12-20T00:35:18;95563.13;;;9.10;74.86
17373;BME280;8803;48.116;11.590;2023-12-20T00:37:23;95564.08;;;9.09;75.27
17373;BME280;8803;48.116;11.590;2023-12-20T00:39:28;95559.25;;;9.09;74.88
17373;BME280;8803;48.116;11.590;2023-12-20T00:41:32;95559.76;;;9.08;74.79
17373;BME280;8803;48.116;11.590;2023-12-20T00:43:37;95557.44;;;9.09;74.79
17373;BME280;8803;48.116;11.590;2023-12-20T00:47:55;95542.45;;;9.14;72.46
17373;BME280;8803;48.116;11.590;2023-12-20T00:49:59;95546.20;;;9.11;69.75
17373;BME280;8803;48.116;11.590;2023-12-20T00:52:05;95540.75;;;9.13;71.35
17373;BME280;8803;48.116;11.590;2023-12-20T00:56:22;95540.45;;;9.21;72.46
17373;BME280;8803;48.116;11.590;2023-12-20T00:58:27;95535.28;;;9.20;69.56
17373;BME280;8803;48.116;11.590;2023-12-20T01:00:31;95533.95;;;9.20;69.60
17373;BME280;8803;48.116;11.590;2023-12-20T01:02:36;95541.78;;;9.21;69.73
17373;BME280;8803;48.116;11.590;2023-12-20T01:04:41;95535.84;;;9.23;70.86
17373;BME280;8803;48.116;11.590;2023-12-20T01:08:58;95522.41;;;9.30;71.06
17373;BME280;8803;48.116;11.590;2023-12-20T01:13:19;95521.64;;;9.34;70.28
17373;BME280;8803;48.116;11.590;2023-12-20T01:15:24;95508.78;;;9.29;69.74
17373;BME280;8803;48.116;11.590;2023-12-20T01:17:29;95506.83;;;9.31;70.80
17373;BME280;8803;48.116;11.590;2023-12-20T01:19:33;95505.50;;;9.31;70.87
17373;BME280;8803;48.116;11.590;2023-12-20T01:21:38;95505.36;;;9.33;71.15
17373;BME280;8803;48.116;11.590;2023-12-20T01:23:42;95510.67;;;9.33;71.18
17373;BME280;8803;48.116;11.590;2023-12-20T01:25:47;95508.87;;;9.33;69.49
17373;BME280;8803;48.116;11.590;2023-12-20T01:27:54;95504.03;;;9.33;68.95
17373;BME280;8803;48.116;11.590;2023-12-20T01:29:58;95506.69;;;9.33;69.47
17373;BME280;8803;48.116;11.590;2023-12-20T01:32:03;95503.19;;;9.32;67.86
17373;BME280;8803;48.116;11.590;2023-12-20T01:36:21;95473.79;;;9.39;69.54
17373;BME280;8803;48.116;11.590;2023-12-20T01:38:25;95478.51;;;9.36;69.70
17373;BME280;8803;48.116;11.590;2023-12-20T01:42:43;95496.45;;;9.43;70.30
17373;BME280;8803;48.116;11.590;2023-12-20T01:44:47;95491.06;;;9.39;70.22
17373;BME280;8803;48.116;11.590;2023-12-20T01:49:06;95484.02;;;9.44;71.01
17373;BME280;8803;48.116;11.590;2023-12-20T01:53:27;95472.25;;;9.46;71.46
17373;BME280;8803;48.116;11.590;2023-12-20T01:55:33;95466.05;;;9.42;70.64
17373;BME280;8803;48.116;11.590;2023-12-20T01:57:39;95459.17;;;9.39;66.10
17373;BME280;8803;48.116;11.590;2023-12-20T01:59:45;95469.32;;;9.40;69.63
17373;BME280;8803;48.116;11.590;2023-12-20T02:01:50;95455.52;;;9.40;69.94
17373;BME280;8803;48.116;11.590;2023-12-20T02:03:56;95459.52;;;9.40;69.91
17373;BME280;8803;48.116;11.590;2023-12-20T02:06:01;95461.55;;;9.42;69.74
17373;BME280;8803;48.116;11.590;2023-12-20T02:08:07;95452.24;;;9.42;69.30
17373;BME280;8803;48.116;11.590;2023-12-20T02:10:11;95444.98;;;9.44;69.54
17373;BME280;8803;48.116;11.590;2023-12-20T02:12:16;95430.51;;;9.43;63.15
17373;BME280;8803;48.116;11.590;2023-12-20T02:14:20;95434.02;;;9.43;67.35
17373;BME280;8803;48.116;11.590;2023-12-20T02:16:25;95429.03;;;9.44;68.77
17373;BME280;8803;48.116;11.590;2023-12-20T02:18:29;95422.76;;;9.45;68.39
17373;BME280;8803;48.116;11.590;2023-12-20T02:20:36;95426.75;;;9.45;69.17
17373;BME280;8803;48.116;11.590;2023-12-20T02:22:40;95418.15;;;9.47;70.44
17373;BME280;8803;48.116;11.590;2023-12-20T02:24:45;95425.64;;;9.48;70.33
17373;BME280;8803;48.116;11.590;2023-12-20T02:26:50;95417.16;;;9.48;70.26
17373;BME280;8803;48.116;11.590;2023-12-20T02:28:56;95421.51;;;9.49;68.21
17373;BME280;8803;48.116;11.590;2023-12-20T02:31:00;95419.55;;;9.51;69.12
17373;BME280;8803;48.116;11.590;2023-12-20T02:33:08;95420.87;;;9.51;68.01
17373;BME280;8803;48.116;11.590;2023-12-20T02:37:28;95419.22;;;9.60;70.02
17373;BME280;8803;48.116;11.590;2023-12-20T02:39:32;95419.15;;;9.56;69.20
17373;BME280;8803;48.116;11.590;2023-12-20T02:41:37;95418.16;;;9.57;68.81
17373;BME280;8803;48.116;11.590;2023-12-20T02:43:43;95416.20;;;9.59;69.67
17373;BME280;8803;48.116;11.590;2023-12-20T02:45:48;95405.94;;;9.60;69.66
17373;BME280;8803;48.116;11.590;2023-12-20T02:47:53;95403.28;;;9.60;66.09
17373;BME280;8803;48.116;11.590;2023-12-20T02:52:12;95394.97;;;9.69;69.27
17373;BME280;8803;48.116;11.590;2023-12-20T02:54:16;95403.58;;;9.67;69.51
17373;BME280;8803;48.116;11.590;2023-12-20T02:56:21;95399.59;;;9.67;70.04
17373;BME280;8803;48.116;11.590;2023-12-20T02:58:26;95392.94;;;9.67;70.19
17373;BME280;8803;48.116;11.590;2023-12-20T03:00:30;95390.61;;;9.68;70.29
17373;BME280;8803;48.116;11.590;2023-12-20T03:02:37;95395.59;;;9.67;70.22
17373;BME280;8803;48.116;11.590;2023-12-20T03:04:41;95390.61;;;9.68;70.88
17373;BME280;8803;48.116;11.590;2023-12-20T03:06:46;95396.78;;;9.68;68.90
17373;BME280;8803;48.116;11.590;2023-12-20T03:08:51;95395.59;;;9.67;68.18
17373;BME280;8803;48.116;11.590;2023-12-20T03:10:55;95400.44;;;9.67;69.96
17373;BME280;8803;48.116;11.590;2023-12-20T03:15:13;95400.21;;;9.74;71.39
17373;BME280;8803;48.116;11.590;2023-12-20T03:17:17;95408.11;;;9.70;71.00
17373;BME280;8803;48.116;11.590;2023-12-20T03:19:24;95404.49;;;9.71;70.87
17373;BME280;8803;48.116;11.590;2023-12-20T03:23:43;95397.55;;;9.74;69.82
17373;BME280;8803;48.116;11.590;2023-12-20T03:28:01;95393.08;;;9.75;70.38
17373;BME280;8803;48.116;11.590;2023-12-20T03:30:11;95407.63;;;9.71;70.79
17373;BME280;8803;48.116;11.590;2023-12-20T03:32:16;95407.00;;;9.73;70.89
17373;BME280;8803;48.116;11.590;2023-12-20T03:34:20;95408.33;;;9.73;71.22
17373;BME280;8803;48.116;11.590;2023-12-20T03:36:25;95406.04;;;9.74;71.51
17373;BME280;8803;48.116;11.590;2023-12-20T03:38:29;95409.03;;;9.75;71.09
17373;BME280;8803;48.116;11.590;2023-12-20T03:40:34;95411.06;;;9.77;71.31
17373;BME280;8803;48.116;11.590;2023-12-20T03:42:38;95412.76;;;9.78;71.52
17373;BME280;8803;48.116;11.590;2023-12-20T03:44:43;95416.75;;;9.78;71.73
17373;BME280;8803;48.116;11.590;2023-12-20T03:46:48;95422.88;;;9.78;71.41
17373;BME280;8803;48.116;11.590;2023-12-20T03:51:07;95433.47;;;9.84;71.69
17373;BME280;8803;48.116;11.590;2023-12-20T03:53:11;95438.20;;;9.80;70.75
17373;BME280;8803;48.116;11.590;2023-12-20T03:55:16;95441.70;;;9.81;71.05
17373;BME280;8803;48.116;11.590;2023-12-20T03:57:21;95446.39;;;9.83;71.66
17373;BME280;8803;48.116;11.590;2023-12-20T03:59:25;95440.75;;;9.82;71.23
17373;BME280;8803;48.116;11.590;2023-12-20T04:01:30;95444.22;;;9.82;69.94
17373;BME280;8803;48.116;11.590;2023-12-20T04:05:48;95439.48;;;9.86;70.32
17373;BME280;8803;48.116;11.590;2023-12-20T04:07:52;95447.73;;;9.83;70.67
17373;BME280;8803;48.116;11.590;2023-12-20T04:12:10;95441.78;;;9.85;70.64
17373;BME280;8803;48.116;11.590;2023-12-20T04:14:15;95451.02;;;9.81;70.79
17373;BME280;8803;48.116;11.590;2023-12-20T04:16:19;95452.83;;;9.80;70.96
17373;BME280;8803;48.116;11.590;2023-12-20T04:18:24;95447.50;;;9.80;71.16
17373;BME280;8803;48.116;11.590;2023-12-20T04:20:28;95457.95;;;9.78;70.94
17373;BME280;8803;48.116;11.590;2023-12-20T04:22:33;95457.59;;;9.77;71.40
17373;BME280;8803;48.116;11.590;2023-12-20T04:24:38;95455.08;;;9.75;71.48
17373;BME280;8803;48.116;11.590;2023-12-20T04:26:42;95454.85;;;9.73;71.79
17373;BME280;8803;48.116;11.590;2023-12-20T04:28:47;95449.53;;;9.73;72.10
17373;BME280;8803;48.116;11.590;2023-12-20T04:30:51;95452.05;;;9.74;72.23
17373;BME280;8803;48.116;11.590;2023-12-20T04:35:09;95443.67;;;9.79;72.98
17373;BME280;8803;48.116;11.590;2023-12-20T04:37:14;95449.91;;;9.74;72.81
17373;BME280;8803;48.116;11.590;2023-12-20T04:39:18;95444.22;;;9.73;72.67
17373;BME280;8803;48.116;11.590;2023-12-20T04:41:23;95448.20;;;9.73;72.84
17373;BME280;8803;48.116;11.590;2023-12-20T04:43:27;95450.02;;;9.72;72.88
17373;BME280;8803;48.116;11.590;2023-12-20T04:45:33;95453.52;;;9.73;72.95
17373;BME280;8803;48.116;11.590;2023-12-20T04:49:50;95454.59;;;9.76;73.51
17373;BME280;8803;48.116;11.590;2023-12-20T04:51:55;95462.45;;;9.72;73.29
17373;BME280;8803;48.116;11.590;2023-12-20T04:54:00;95465.27;;;9.70;73.43
17373;BME280;8803;48.116;11.590;2023-12-20T04:56:07;95475.42;;;9.71;73.32
17373;BME280;8803;48.116;11.590;2023-12-20T04:58:12;95475.89;;;9.70;73.31
17373;BME280;8803;48.116;11.590;2023-12-20T05:02:34;95478.86;;;9.77;74.00
17373;BME280;8803;48.116;11.590;2023-12-20T05:04:40;95482.39;;;9.72;73.96
17373;BME280;8803;48.116;11.590;2023-12-20T05:06:45;95485.42;;;9.73;73.97
17373;BME280;8803;48.116;11.590;2023-12-20T05:08:50;95491.14;;;9.68;74.69
17373;BME280;8803;48.116;11.590;2023-12-20T05:10:56;95501.07;;;9.66;75.04
17373;BME280;8803;48.116;11.590;2023-12-20T05:15:15;95500.22;;;9.66;75.76
17373;BME280;8803;48.116;11.590;2023-12-20T05:17:19;95497.26;;;9.59;75.40
17373;BME280;8803;48.116;11.590;2023-12-20T05:21:37;95496.67;;;9.61;75.80
17373;BME280;8803;48.116;11.590;2023-12-20T05:25:55;95497.77;;;9.59;76.08
17373;BME280;8803;48.116;11.590;2023-12-20T05:27:59;95502.16;;;9.54;75.88
17373;BME280;8803;48.116;11.590;2023-12-20T05:30:07;95504.34;;;9.54;75.96
17373;BME280;8803;48.116;11.590;2023-12-20T05:32:12;95518.73;;;9.52;76.10
17373;BME280;8803;48.116;11.590;2023-12-20T05:34:17;95519.20;;;9.51;76.28
17373;BME280;8803;48.116;11.590;2023-12-20T05:36:23;95523.81;;;9.49;76.52
17373;BME280;8803;48.116;11.590;2023-12-20T05:38:29;95525.99;;;9.50;76.66
17373;BME280;8803;48.116;11.590;2023-12-20T05:40:34;95524.30;;;9.49;77.22
17373;BME280;8803;48.116;11.590;2023-12-20T05:42:38;95524.44;;;9.47;78.27
17373;BME280;8803;48.116;11.590;2023-12-20T05:44:43;95527.72;;;9.45;77.81
17373;BME280;8803;48.116;11.590;2023-12-20T05:46:47;95538.48;;;9.44;77.79
17373;BME280;8803;48.116;11.590;2023-12-20T05:51:06;95534.61;;;9.42;79.81
17373;BME280;8803;48.116;11.590;2023-12-20T05:53:10;95544.81;;;9.37;79.41
17373;BME280;8803;48.116;11.590;2023-12-20T05:55:15;95546.25;;;9.36;79.44
17373;BME280;8803;48.116;11.590;2023-12-20T05:57:20;95553.66;;;9.32;80.39
17373;BME280;8803;48.116;11.590;2023-12-20T05:59:26;95550.77;;;9.30;80.49
17373;BME280;8803;48.116;11.590;2023-12-20T06:01:30;95552.38;;;9.27;80.50
17373;BME280;8803;48.116;11.590;2023-12-20T06:03:35;95552.86;;;9.26;80.22
17373;BME280;8803;48.116;11.590;2023-12-20T06:05:40;95562.53;;;9.27;80.18
17373;BME280;8803;48.116;11.590;2023-12-20T06:07:44;95561.08;;;9.23;80.27
17373;BME280;8803;48.116;11.590;2023-12-20T06:12:08;95559.73;;;9.29;80.28
17373;BME280;8803;48.116;11.590;2023-12-20T06:14:14;95569.42;;;9.24;80.50
17373;BME280;8803;48.116;11.590;2023-12-20T06:16:20;95567.72;;;9.23;80.44
17373;BME280;8803;48.116;11.590;2023-12-20T06:20:38;95566.91;;;9.23;80.65
17373;BME280;8803;48.116;11.590;2023-12-20T06:22:42;95582.04;;;9.17;80.60
17373;BME280;8803;48.116;11.590;2023-12-20T06:24:47;95581.33;;;9.15;80.88
17373;BME280;8803;48.116;11.590;2023-12-20T06:26:52;95587.45;;;9.15;80.89
17373;BME280;8803;48.116;11.590;2023-12-20T06:31:10;95576.22;;;9.17;81.48
17373;BME280;8803;48.116;11.590;2023-12-20T06:33:14;95588.45;;;9.09;81.63
17373;BME280;8803;48.116;11.590;2023-12-20T06:35:19;95585.94;;;9.07;81.55
17373;BME280;8803;48.116;11.590;2023-12-20T06:37:23;95590.41;;;9.07;82.15
17373;BME280;8803;48.116;11.590;2023-12-20T06:39:28;95597.09;;;9.01;82.13
17373;BME280;8803;48.116;11.590;2023-12-20T06:41:35;95601.07;;;9.01;81.96
17373;BME280;8803;48.116;11.590;2023-12-20T06:45:53;95611.08;;;9.03;82.38
17373;BME280;8803;48.116;11.590;2023-12-20T06:47:57;95617.95;;;9.00;82.08
17373;BME280;8803;48.116;11.590;2023-12-20T06:52:16;95620.14;;;9.01;82.89
17373;BME280;8803;48.116;11.590;2023-12-20T06:54:21;95625.73;;;8.92;82.72
17373;BME280;8803;48.116;11.590;2023-12-20T06:58:38;95627.77;;;8.94;82.93
17373;BME280;8803;48.116;11.590;2023-12-20T07:02:55;95622.97;;;8.94;83.27
17373;BME280;8803;48.116;11.590;2023-12-20T07:05:00;95629.88;;;8.85;83.15
17373;BME280;8803;48.116;11.590;2023-12-20T07:07:05;95626.99;;;8.83;83.24
17373;BME280;8803;48.116;11.590;2023-12-20T07:09:10;95629.41;;;8.80;83.30
17373;BME280;8803;48.116;11.590;2023-12-20T07:11:16;95638.70;;;8.80;83.39
17373;BME280;8803;48.116;11.590;2023-12-20T07:13:21;95635.91;;;8.82;83.40
17373;BME280;8803;48.116;11.590;2023-12-20T07:15:27;95643.67;;;8.79;83.54
17373;BME280;8803;48.116;11.590;2023-12-20T07:17:32;95649.31;;;8.80;83.52
17373;BME280;8803;48.116;11.590;2023-12-20T07:19:37;95658.27;;;8.79;83.53
17373;BME280;8803;48.116;11.590;2023-12-20T07:21:43;95658.98;;;8.75;83.72
17373;BME280;8803;48.116;11.590;2023-12-20T07:26:01;95659.22;;;8.78;84.16
17373;BME280;8803;48.116;11.590;2023-12-20T07:28:07;95668.41;;;8.74;83.88
17373;BME280;8803;48.116;11.590;2023-12-20T07:30:16;95670.21;;;8.73;84.04
17373;BME280;8803;48.116;11.590;2023-12-20T07:32:21;95669.49;;;8.71;84.13
17373;BME280;8803;48.116;11.590;2023-12-20T07:34:25;95677.94;;;8.71;84.20
17373;BME280;8803;48.116;11.590;2023-12-20T07:36:30;95674.80;;;8.71;84.18
17373;BME280;8803;48.116;11.590;2023-12-20T07:38:35;95680.00;;;8.67;84.39
17373;BME280;8803;48.116;11.590;2023-12-20T07:40:41;95686.87;;;8.70;84.36
17373;BME280;8803;48.116;11.590;2023-12-20T07:42:45;95686.41;;;8.70;84.28
17373;BME280;8803;48.116;11.590;2023-12-20T07:44:50;95687.36;;;8.69;84.33
17373;BME280;8803;48.116;11.590;2023-12-20T07:46:55;95683.85;;;8.69;84.42
17373;BME280;8803;48.116;11.590;2023-12-20T07:49:01;95678.06;;;8.69;84.43
17373;BME280;8803;48.116;11.590;2023-12-20T07:51:06;95681.20;;;8.69;84.35
17373;BME280;8803;48.116;11.590;2023-12-20T07:53:12;95689.77;;;8.67;84.61
17373;BME280;8803;48.116;11.590;2023-12-20T07:55:20;95685.79;;;8.67;84.55
17373;BME280;8803;48.116;11.590;2023-12-20T07:57:28;95683.98;;;8.67;84.51
17373;BME280;8803;48.116;11.590;2023-12-20T08:01:44;95686.14;;;8.73;84.82
17373;BME280;8803;48.116;11.590;2023-12-20T08:03:51;95689.67;;;8.68;84.65
17373;BME280;8803;48.116;11.590;2023-12-20T08:05:56;95685.31;;;8.67;84.55
17373;BME280;8803;48.116;11.590;2023-12-20T08:08:03;95695.08;;;8.67;84.59
17373;BME280;8803;48.116;11.590;2023-12-20T08:10:10;95698.45;;;8.69;84.62
17373;BME280;8803;48.116;11.590;2023-12-20T08:12:16;95698.58;;;8.67;84.53
17373;BME280;8803;48.116;11.590;2023-12-20T08:16:33;95705.70;;;8.72;84.91
17373;BME280;8803;48.116;11.590;2023-12-20T08:20:51;95703.66;;;8.70;85.20
17373;BME280;8803;48.116;11.590;2023-12-20T08:22:57;95711.14;;;8.65;84.99
17373;BME280;8803;48.116;11.590;2023-12-20T08:27:15;95708.72;;;8.68;85.37
17373;BME280;8803;48.116;11.590;2023-12-20T08:29:19;95713.31;;;8.66;85.01
17373;BME280;8803;48.116;11.590;2023-12-20T08:31:24;95712.80;;;8.66;84.96
17373;BME280;8803;48.116;11.590;2023-12-20T08:33:29;95707.16;;;8.65;85.09
17373;BME280;8803;48.116;11.590;2023-12-20T08:35:35;95714.27;;;8.65;85.15
17373;BME280;8803;48.116;11.590;2023-12-20T08:37:40;95708.61;;;8.64;85.15
17373;BME280;8803;48.116;11.590;2023-12-20T08:39:46;95706.80;;;8.59;85.50
17373;BME280;8803;48.116;11.590;2023-12-20T08:44:04;95705.83;;;8.65;85.78
17373;BME280;8803;48.116;11.590;2023-12-20T08:46:09;95706.67;;;8.60;85.48
17373;BME280;8803;48.116;11.590;2023-12-20T08:48:14;95708.84;;;8.61;85.60
17373;BME280;8803;48.116;11.590;2023-12-20T08:50:19;95713.55;;;8.63;85.55
17373;BME280;8803;48.116;11.590;2023-12-20T08:52:24;95709.80;;;8.65;85.26
17373;BME280;8803;48.116;11.590;2023-12-20T08:54:30;95705.96;;;8.64;85.48
17373;BME280;8803;48.116;11.590;2023-12-20T08:56:34;95709.56;;;8.63;85.66
17373;BME280;8803;48.116;11.590;2023-12-20T08:58:39;95710.89;;;8.63;85.85
17373;BME280;8803;48.116;11.590;2023-12-20T09:00:46;95706.30;;;8.65;85.80
17373;BME280;8803;48.116;11.590;2023-12-20T09:02:50;95715.45;;;8.66;85.79
17373;BME280;8803;48.116;11.590;2023-12-20T09:04:55;95712.23;;;8.68;85.63
17373;BME280;8803;48.116;11.590;2023-12-20T09:07:01;95713.77;;;8.71;85.53
17373;BME280;8803;48.116;11.590;2023-12-20T09:09:07;95711.83;;;8.73;85.40
17373;BME280;8803;48.116;11.590;2023-12-20T09:11:13;95718.13;;;8.72;85.31
17373;BME280;8803;48.116;11.590;2023-12-20T09:15:31;95695.91;;;8.79;85.58
17373;BME280;8803;48.116;11.590;2023-12-20T09:17:37;95700.50;;;8.77;85.32
17373;BME280;8803;48.116;11.590;2023-12-20T09:19:41;95701.08;;;8.80;85.13
17373;BME280;8803;48.116;11.590;2023-12-20T09:21:46;95708.80;;;8.83;84.97
17373;BME280;8803;48.116;11.590;2023-12-20T09:23:51;95706.97;;;8.84;84.90
17373;BME280;8803;48.116;11.590;2023-12-20T09:25:55;95706.02;;;8.85;84.93
17373;BME280;8803;48.116;11.590;2023-12-20T09:28:00;95708.78;;;8.89;84.81
17373;BME280;8803;48.116;11.590;2023-12-20T09:32:21;95702.22;;;8.98;84.77
17373;BME280;8803;48.116;11.590;2023-12-20T09:34:26;95705.27;;;8.94;84.63
17373;BME280;8803;48.116;11.590;2023-12-20T09:38:45;95708.75;;;9.00;84.67
17373;BME280;8803;48.116;11.590;2023-12-20T09:40:52;95712.83;;;8.98;84.25
17373;BME280;8803;48.116;11.590;2023-12-20T09:43:01;95711.75;;;9.01;84.22
17373;BME280;8803;48.116;11.590;2023-12-20T09:45:09;95715.39;;;9.00;84.31
17373;BME280;8803;48.116;11.590;2023-12-20T09:47:16;95717.19;;;8.99;84.21
17373;BME280;8803;48.116;11.590;2023-12-20T09:49:24;95716.20;;;9.00;84.13
17373;BME280;8803;48.116;11.590;2023-12-20T09:51:30;95714.41;;;9.01;84.08
17373;BME280;8803;48.116;11.590;2023-12-20T09:53:37;95717.19;;;8.99;84.17
17373;BME280;8803;48.116;11.590;2023-12-20T09:55:45;95719.47;;;8.98;84.30
17373;BME280;8803;48.116;11.590;2023-12-20T09:57:51;95704.53;;;8.97;84.42
17373;BME280;8803;48.116;11.590;2023-12-20T09:59:56;95704.16;;;8.96;84.44
17373;BME280;8803;48.116;11.590;2023-12-20T10:02:04;95703.09;;;8.93;84.59
17373;BME280;8803;48.116;11.590;2023-12-20T10:06:23;95690.64;;;8.99;84.92
17373;BME280;8803;48.116;11.590;2023-12-20T10:08:28;95696.19;;;8.96;84.61
17373;BME280;8803;48.116;11.590;2023-12-20T10:10:35;95687.75;;;8.97;84.60
17373;BME280;8803;48.116;11.590;2023-12-20T10:12:39;95682.30;;;8.98;84.66
17373;BME280;8803;48.116;11.590;2023-12-20T10:17:03;95677.09;;;9.08;84.80
17373;BME280;8803;48.116;11.590;2023-12-20T10:21:21;95681.41;;;9.14;84.43
17373;BME280;8803;48.116;11.590;2023-12-20T10:25:41;95681.84;;;9.19;84.28
17373;BME280;8803;48.116;11.590;2023-12-20T10:27:47;95673.78;;;9.15;83.91
17373;BME280;8803;48.116;11.590;2023-12-20T10:29:52;95674.38;;;9.19;83.77
17373;BME280;8803;48.116;11.590;2023-12-20T10:31:57;95680.41;;;9.21;83.69
17373;BME280;8803;48.116;11.590;2023-12-20T10:34:02;95678.58;;;9.21;83.65
17373;BME280;8803;48.116;11.590;2023-12-20T10:38:28;95676.14;;;9.29;83.74
17373;BME280;8803;48.116;11.590;2023-12-20T10:40:35;95683.50;;;9.26;83.36
17373;BME280;8803;48.116;11.590;2023-12-20T10:44:54;95670.45;;;9.28;84.26
17373;BME280;8803;48.116;11.590;2023-12-20T10:47:01;95676.39;;;9.26;83.81
17373;BME280;8803;48.116;11.590;2023-12-20T10:49:08;95675.43;;;9.27;83.74
17373;BME280;8803;48.116;11.590;2023-12-20T10:51:15;95665.14;;;9.28;83.72
17373;BME280;8803;48.116;11.590;2023-12-20T10:53:25;95659.49;;;9.27;83.71
17373;BME280;8803;48.116;11.590;2023-12-20T10:55:30;95666.33;;;9.30;83.56
17373;BME280;8803;48.116;11.590;2023-12-20T10:57:37;95666.70;;;9.31;83.79
17373;BME280;8803;48.116;11.590;2023-12-20T10:59:44;95656.56;;;9.30;83.59
17373;BME280;8803;48.116;11.590;2023-12-20T11:01:53;95664.28;;;9.33;83.56
17373;BME280;8803;48.116;11.590;2023-12-20T11:04:00;95660.64;;;9.34;83.50
17373;BME280;8803;48.116;11.590;2023-12-20T11:06:10;95658.36;;;9.35;83.72
17373;BME280;8803;48.116;11.590;2023-12-20T11:08:19;95662.34;;;9.35;83.74
17373;BME280;8803;48.116;11.590;2023-12-20T11:12:43;95655.31;;;9.40;84.08
17373;BME280;8803;48.116;11.590;2023-12-20T11:14:50;95658.46;;;9.34;84.02
17373;BME280;8803;48.116;11.590;2023-12-20T11:17:09;95662.58;;;9.32;84.00
17373;BME280;8803;48.116;11.590;2023-12-20T11:19:14;95660.06;;;9.31;84.03
17373;BME280;8803;48.116;11.590;2023-12-20T11:23:33;95658.36;;;9.35;84.10
17373;BME280;8803;48.116;11.590;2023-12-20T11:28:12;95642.75;;;9.36;84.77
17373;BME280;8803;48.116;11.590;2023-12-20T11:30:17;95641.61;;;9.29;84.34
17373;BME280;8803;48.116;11.590;2023-12-20T11:32:41;95637.73;;;9.28;84.83
17373;BME280;8803;48.116;11.590;2023-12-20T11:34:47;95640.89;;;9.27;84.83
17373;BME280;8803;48.116;11.590;2023-12-20T11:36:58;95638.58;;;9.28;84.43
17373;BME280;8803;48.116;11.590;2023-12-20T11:39:05;95645.22;;;9.28;84.83
17373;BME280;8803;48.116;11.590;2023-12-20T11:41:13;95640.28;;;9.29;84.72
17373;BME280;8803;48.116;11.590;2023-12-20T11:43:31;95643.41;;;9.29;84.63
17373;BME280;8803;48.116;11.590;2023-12-20T11:45:37;95638.95;;;9.29;84.82
17373;BME280;8803;48.116;11.590;2023-12-20T11:47:44;95639.43;;;9.29;84.58
17373;BME280;8803;48.116;11.590;2023-12-20T11:49:50;95636.30;;;9.29;84.68
17373;BME280;8803;48.116;11.590;2023-12-20T11:51:56;95633.50;;;9.31;84.76
17373;BME280;8803;48.116;11.590;2023-12-20T11:54:00;95629.14;;;9.30;84.94
17373;BME280;8803;48.116;11.590;2023-12-20T11:56:07;95624.54;;;9.32;84.71
17373;BME280;8803;48.116;11.590;2023-12-20T11:58:13;95625.76;;;9.33;84.68
17373;BME280;8803;48.116;11.590;2023-12-20T12:00:19;95623.30;;;9.36;84.55
17373;BME280;8803;48.116;11.590;2023-12-20T12:02:24;95620.40;;;9.39;84.34
17373;BME280;8803;48.116;11.590;2023-12-20T12:04:29;95619.78;;;9.41;84.29
17373;BME280;8803;48.116;11.590;2023-12-20T12:06:34;95620.97;;;9.42;84.15
17373;BME280;8803;48.116;11.590;2023-12-20T12:08:38;95613.60;;;9.46;84.06
17373;BME280;8803;48.116;11.590;2023-12-20T12:10:44;95618.77;;;9.47;83.83
17373;BME280;8803;48.116;11.590;2023-12-20T12:12:48;95613.45;;;9.47;83.76
17373;BME280;8803;48.116;11.590;2023-12-20T12:14:56;95614.03;;;9.51;83.63
17373;BME280;8803;48.116;11.590;2023-12-20T12:19:22;95611.83;;;9.56;83.92
17373;BME280;8803;48.116;11.590;2023-12-20T12:21:28;95612.59;;;9.52;83.45
17373;BME280;8803;48.116;11.590;2023-12-20T12:23:33;95614.73;;;9.53;83.45
17373;BME280;8803;48.116;11.590;2023-12-20T12:25:40;95609.79;;;9.54;83.37
17373;BME280;8803;48.116;11.590;2023-12-20T12:27:45;95609.42;;;9.53;83.39
17373;BME280;8803;48.116;11.590;2023-12-20T12:30:02;95604.48;;;9.54;83.43
17373;BME280;8803;48.116;11.590;2023-12-20T12:32:10;95603.77;;;9.52;83.44
17373;BME280;8803;48.116;11.590;2023-12-20T12:34:14;95601.25;;;9.50;83.49
17373;BME280;8803;48.116;11.590;2023-12-20T12:38:32;95595.42;;;9.51;83.88
17373;BME280;8803;48.116;11.590;2023-12-20T12:40:38;95594.86;;;9.47;83.72
17373;BME280;8803;48.116;11.590;2023-12-20T12:42:44;95595.81;;;9.46;83.64
17373;BME280;8803;48.116;11.590;2023-12-20T12:47:03;95584.80;;;9.51;84.00
17373;BME280;8803;48.116;11.590;2023-12-20T12:49:09;95581.82;;;9.44;83.77
17373;BME280;8803;48.116;11.590;2023-12-20T12:51:13;95581.82;;;9.44;83.86
17373;BME280;8803;48.116;11.590;2023-12-20T12:53:18;95577.12;;;9.42;84.01
17373;BME280;8803;48.116;11.590;2023-12-20T12:55:24;95577.50;;;9.43;83.98
17373;BME280;8803;48.116;11.590;2023-12-20T12:59:43;95576.48;;;9.50;84.13
17373;BME280;8803;48.116;11.590;2023-12-20T13:01:49;95584.28;;;9.42;83.99
17373;BME280;8803;48.116;11.590;2023-12-20T13:03:54;95580.63;;;9.43;83.96
17373;BME280;8803;48.116;11.590;2023-12-20T13:05:59;95583.66;;;9.44;84.01
17373;BME280;8803;48.116;11.590;2023-12-20T13:10:17;95575.88;;;9.46;84.36
17373;BME280;8803;48.116;11.590;2023-12-20T13:14:36;95576.88;;;9.45;84.42
17373;BME280;8803;48.116;11.590;2023-12-20T13:16:41;95588.37;;;9.40;84.17
17373;BME280;8803;48.116;11.590;2023-12-20T13:18:47;95591.55;;;9.40;84.17
17373;BME280;8803;48.116;11.590;2023-12-20T13:20:52;95590.42;;;9.27;84.44